Terminal Aerodrome Forecast
Issued by NWS Quad Cities IA IL

Home | Current Version | Previous Version | Text Only | Print | Product List | Glossary On
Versions: 1 2 3 4 5 6 7 8 9 10 11 12 13 14 15 16 17 18 19 20 21
410
FTUS43 KDVN 300520
TAFMLI
TAF
KMLI 300520Z 3006/0106 02005KT P6SM BKN060
     FM301100 03008KT P6SM OVC025
     FM301300 03009KT P6SM OVC015
     FM301900 03012KT P6SM BKN035=

USA.gov is the U.S. government's official web portal to all federal, state and local government web resources and services.